Ituiutaba, Brazil
Current Conditions -  °F | °C
As of 1:00 PM on Friday 31 Oct 2014 (Local Time) from SBUL Reporting Station
Rain Showers Rain Showers  
Wind Chill: 81°   Ceiling: 4000
Heat Index: 81°   Visibility: 6mi
Dew Point: 61°   Wind: 9mph
Humidity: 51%   Direction: 20°NNE
Pressure: 30.06"   Gusts: NA
Location:  18.97°S, 49.46°W
Report Text: SBUL 311500Z 02008KT 9999 VCSH BKN040 FEW045TCU 27/16 Q1018
Loading
Personal Weather Stations






























Interactive Weather Map
Tropical Storm Tracking
New forecast layout! Learn more

10-Day Weather Forecast

Advertisements
Track Severe Weather on mobile